createdAt,value
2018-07-02T00:00:19.564Z,14.70
2018-07-02T00:02:46.797Z,14.70
2018-07-02T00:05:14.033Z,14.80
2018-07-02T00:07:41.240Z,14.70
2018-07-02T00:10:08.882Z,14.70
2018-07-02T00:12:36.141Z,14.70
2018-07-02T00:15:03.452Z,14.60
2018-07-02T00:17:30.659Z,14.70
2018-07-02T00:19:57.909Z,14.70
2018-07-02T00:22:25.085Z,14.70
2018-07-02T00:24:52.317Z,14.70
2018-07-02T00:27:19.564Z,14.70
2018-07-02T00:29:46.777Z,14.70
2018-07-02T00:32:14.005Z,14.70
2018-07-02T00:34:41.298Z,14.70
2018-07-02T00:37:08.555Z,14.70
2018-07-02T00:39:35.920Z,14.60
2018-07-02T00:42:03.163Z,14.60
2018-07-02T00:44:30.496Z,14.50
2018-07-02T00:46:57.738Z,14.50
2018-07-02T00:49:24.969Z,14.50
2018-07-02T00:51:52.173Z,14.40
2018-07-02T00:54:19.413Z,14.40
2018-07-02T00:56:46.585Z,14.30
2018-07-02T01:01:41.274Z,14.20
2018-07-02T01:04:08.496Z,14.30
2018-07-02T01:06:35.712Z,14.20
2018-07-02T01:09:04.364Z,14.10
2018-07-02T01:11:31.589Z,14.00
2018-07-02T01:13:59.712Z,14.00
2018-07-02T01:16:27.041Z,13.90
2018-07-02T01:18:54.280Z,13.90
2018-07-02T01:21:21.464Z,13.90
2018-07-02T01:23:48.689Z,13.90
2018-07-02T01:26:16.398Z,13.90
2018-07-02T01:28:43.916Z,13.80
2018-07-02T01:31:11.504Z,13.90
2018-07-02T01:33:38.683Z,13.90
2018-07-02T01:38:33.667Z,13.90
2018-07-02T01:41:00.936Z,14.00
2018-07-02T01:43:28.156Z,13.90
2018-07-02T01:45:55.380Z,13.80
2018-07-02T01:48:22.596Z,13.70
2018-07-02T01:50:49.880Z,13.70
2018-07-02T01:53:17.091Z,13.70
2018-07-02T01:55:44.328Z,13.60
2018-07-02T01:58:11.564Z,13.50
2018-07-02T02:00:38.813Z,13.50
2018-07-02T02:03:06.184Z,13.60
2018-07-02T02:08:00.679Z,13.50
2018-07-02T02:10:27.939Z,13.40
2018-07-02T02:12:55.123Z,13.40
2018-07-02T02:15:22.413Z,13.30
2018-07-02T02:17:49.705Z,13.20
2018-07-02T02:20:16.929Z,13.20
2018-07-02T02:22:44.209Z,13.10
2018-07-02T02:25:11.441Z,13.10
2018-07-02T02:27:38.615Z,13.10
2018-07-02T02:30:06.101Z,13.10
2018-07-02T02:35:00.789Z,13.00
2018-07-02T02:37:28.064Z,12.90
2018-07-02T02:39:55.256Z,12.90
2018-07-02T02:42:22.482Z,12.90
2018-07-02T02:44:49.745Z,12.90
2018-07-02T02:47:17.028Z,12.90
2018-07-02T02:49:44.267Z,12.80
2018-07-02T02:52:11.726Z,12.80
2018-07-02T02:54:38.900Z,12.80
2018-07-02T02:57:06.170Z,12.80
2018-07-02T02:59:33.583Z,12.80
2018-07-02T03:02:00.782Z,12.80
2018-07-02T03:04:28.144Z,12.70
2018-07-02T03:06:55.575Z,12.70
2018-07-02T03:09:22.823Z,12.70
2018-07-02T03:11:50.056Z,12.70
2018-07-02T03:14:17.296Z,12.70
2018-07-02T03:16:44.498Z,12.60
2018-07-02T03:19:11.809Z,12.60
2018-07-02T03:21:39.040Z,12.60
2018-07-02T03:24:06.275Z,12.50
2018-07-02T03:26:33.591Z,12.50
2018-07-02T03:29:00.808Z,12.50
2018-07-02T03:31:28.014Z,12.50
2018-07-02T03:33:55.348Z,12.50
2018-07-02T03:36:22.520Z,12.50
2018-07-02T03:38:49.754Z,12.50
2018-07-02T03:41:17.000Z,12.50
2018-07-02T03:43:44.216Z,12.50
2018-07-02T03:46:11.410Z,12.50
2018-07-02T03:48:38.640Z,12.50
2018-07-02T03:51:05.877Z,12.50
2018-07-02T03:53:33.063Z,12.50
2018-07-02T03:56:00.443Z,12.60
2018-07-02T03:58:27.656Z,12.60
2018-07-02T04:00:54.888Z,12.60
2018-07-02T04:03:22.112Z,12.70
2018-07-02T04:05:49.311Z,12.70
2018-07-02T04:08:16.522Z,12.80
2018-07-02T04:10:43.718Z,12.80
2018-07-02T04:13:10.895Z,12.80
2018-07-02T04:15:38.088Z,12.90
2018-07-02T04:18:05.289Z,13.00
2018-07-02T04:20:32.510Z,13.00
2018-07-02T04:22:59.696Z,13.10
2018-07-02T04:27:54.134Z,13.30
2018-07-02T04:30:21.324Z,13.40
2018-07-02T04:32:48.884Z,13.40
2018-07-02T04:35:16.098Z,13.50
2018-07-02T04:37:43.392Z,13.60
2018-07-02T04:40:10.696Z,13.70
2018-07-02T04:42:38.064Z,13.80
2018-07-02T04:45:05.360Z,13.80
2018-07-02T04:47:32.682Z,13.90
2018-07-02T04:49:59.940Z,14.00
2018-07-02T04:52:27.206Z,14.10
2018-07-02T04:54:54.396Z,14.20
2018-07-02T04:57:21.588Z,14.30
2018-07-02T04:59:49.046Z,14.30
2018-07-02T05:02:16.187Z,14.40
2018-07-02T05:04:43.569Z,14.50
2018-07-02T05:07:10.744Z,14.60
2018-07-02T05:09:38.013Z,14.70
2018-07-02T05:12:05.272Z,14.80
2018-07-02T05:14:32.663Z,15.00
2018-07-02T05:16:59.956Z,15.10
2018-07-02T05:19:27.197Z,15.20
2018-07-02T05:21:54.684Z,15.30
2018-07-02T05:24:21.924Z,15.40
2018-07-02T05:26:49.125Z,15.50
2018-07-02T05:29:16.432Z,15.60
2018-07-02T05:31:43.893Z,15.70
2018-07-02T05:34:11.141Z,15.70
2018-07-02T05:36:38.358Z,15.80
2018-07-02T05:39:07.381Z,15.90
2018-07-02T05:41:34.653Z,16.00
2018-07-02T05:44:01.939Z,16.00
2018-07-02T05:46:29.236Z,16.10
2018-07-02T05:48:56.486Z,16.10
2018-07-02T05:51:23.691Z,16.20
2018-07-02T05:53:50.960Z,16.30
2018-07-02T05:56:18.209Z,16.40
2018-07-02T05:58:45.461Z,16.50
2018-07-02T06:01:13.745Z,16.50
2018-07-02T06:03:41.053Z,16.60
2018-07-02T06:06:08.449Z,16.60
2018-07-02T06:08:35.687Z,16.70
2018-07-02T06:11:03.020Z,16.70
2018-07-02T06:13:30.589Z,16.80
2018-07-02T06:15:57.675Z,16.90
2018-07-02T06:18:24.906Z,16.90
2018-07-02T06:20:52.142Z,16.80
2018-07-02T06:25:47.018Z,17.10
2018-07-02T06:28:14.377Z,17.10
2018-07-02T06:30:41.616Z,17.20
2018-07-02T06:33:08.836Z,17.20
2018-07-02T06:35:36.089Z,17.10
2018-07-02T06:38:03.318Z,17.20
2018-07-02T06:40:30.700Z,17.20
2018-07-02T06:42:58.025Z,17.30
2018-07-02T06:45:25.315Z,17.40
2018-07-02T06:47:52.577Z,17.40
2018-07-02T06:50:19.974Z,17.50
2018-07-02T06:52:47.218Z,17.60
2018-07-02T06:55:14.473Z,17.70
2018-07-02T06:57:41.845Z,17.80
2018-07-02T07:02:36.820Z,17.90
2018-07-02T07:05:04.319Z,17.90
2018-07-02T07:07:31.587Z,18.00
2018-07-02T07:09:58.892Z,18.10
2018-07-02T07:12:26.421Z,18.10
2018-07-02T07:14:53.633Z,18.20
2018-07-02T07:17:20.902Z,18.30
2018-07-02T07:19:48.140Z,18.30
2018-07-02T07:24:42.744Z,18.40
2018-07-02T07:27:09.951Z,18.50
2018-07-02T07:29:37.266Z,18.60
2018-07-02T07:32:04.659Z,18.60
2018-07-02T07:34:31.879Z,18.70
2018-07-02T07:36:59.106Z,18.70
2018-07-02T07:39:26.344Z,18.80
2018-07-02T07:41:53.585Z,18.90
2018-07-02T07:44:20.849Z,18.90
2018-07-02T07:46:48.052Z,18.80
2018-07-02T07:49:15.279Z,18.80
2018-07-02T07:51:42.556Z,18.90
2018-07-02T07:54:10.481Z,19.10
2018-07-02T07:56:38.155Z,19.10
2018-07-02T08:01:39.771Z,19.10
2018-07-02T08:04:07.025Z,19.00
2018-07-02T08:06:34.319Z,19.10
2018-07-02T08:09:01.646Z,19.20
2018-07-02T08:11:28.942Z,19.30
2018-07-02T08:13:56.257Z,19.40
2018-07-02T08:16:23.519Z,19.40
2018-07-02T08:18:50.773Z,19.40
2018-07-02T08:21:18.383Z,19.60
2018-07-02T08:23:45.667Z,19.60
2018-07-02T08:26:13.061Z,19.60
2018-07-02T08:28:40.322Z,19.70
2018-07-02T08:31:07.761Z,19.70
2018-07-02T08:33:35.021Z,19.90
2018-07-02T08:36:02.345Z,20.00
2018-07-02T08:38:29.870Z,19.90
2018-07-02T08:43:24.512Z,19.80
2018-07-02T08:45:52.262Z,20.10
2018-07-02T08:48:19.526Z,20.10
2018-07-02T08:50:46.739Z,20.10
2018-07-02T08:53:14.062Z,20.00
2018-07-02T08:55:41.738Z,20.10
2018-07-02T08:58:08.998Z,20.20
2018-07-02T09:00:36.248Z,20.30
2018-07-02T09:03:03.753Z,20.40
2018-07-02T09:07:58.257Z,20.30
2018-07-02T09:10:25.496Z,20.40
2018-07-02T09:12:52.720Z,20.50
2018-07-02T09:15:19.922Z,20.40
2018-07-02T09:17:47.218Z,20.40
2018-07-02T09:20:14.491Z,20.40
2018-07-02T09:22:41.725Z,20.60
2018-07-02T09:25:08.948Z,20.60
2018-07-02T09:27:36.177Z,20.70
2018-07-02T09:30:03.927Z,20.90
2018-07-02T09:32:31.281Z,21.00
2018-07-02T09:34:58.572Z,21.10
2018-07-02T09:37:25.840Z,21.00
2018-07-02T09:39:53.087Z,21.10
2018-07-02T09:42:20.370Z,21.10
2018-07-02T09:44:47.646Z,21.10
2018-07-02T09:47:14.900Z,21.30
2018-07-02T09:49:42.122Z,21.60
2018-07-02T09:52:09.433Z,21.80
2018-07-02T09:54:36.651Z,21.90
2018-07-02T09:57:04.048Z,21.90
2018-07-02T09:59:31.361Z,22.00
2018-07-02T10:01:58.658Z,22.20
2018-07-02T10:04:27.096Z,22.40
2018-07-02T10:06:54.334Z,22.60
2018-07-02T10:09:21.578Z,22.80
2018-07-02T10:11:48.896Z,22.50
2018-07-02T10:14:16.182Z,22.00
2018-07-02T10:16:43.490Z,22.20
2018-07-02T10:19:10.931Z,22.00
2018-07-02T10:21:38.238Z,22.30
2018-07-02T10:24:05.468Z,22.40
2018-07-02T10:29:00.026Z,22.60
2018-07-02T10:31:27.422Z,22.60
2018-07-02T10:33:54.576Z,22.60
2018-07-02T10:36:21.828Z,22.50
2018-07-02T10:38:50.340Z,22.70
2018-07-02T10:41:24.379Z,23.20
2018-07-02T10:43:51.619Z,23.30
2018-07-02T10:46:18.835Z,23.10
2018-07-02T10:48:46.103Z,23.10
2018-07-02T10:51:13.389Z,23.40
2018-07-02T10:53:40.647Z,23.60
2018-07-02T10:56:07.938Z,23.80
2018-07-02T10:58:35.183Z,24.10
2018-07-02T11:01:02.540Z,24.20
2018-07-02T11:03:29.849Z,24.50
2018-07-02T11:05:57.169Z,24.60
2018-07-02T11:10:51.681Z,24.90
2018-07-02T11:13:18.977Z,24.30
2018-07-02T11:15:46.233Z,23.80
2018-07-02T11:18:13.744Z,24.50
2018-07-02T11:20:41.678Z,24.80
2018-07-02T11:23:08.911Z,25.80
2018-07-02T11:25:37.013Z,26.30
2018-07-02T11:28:04.301Z,26.40
2018-07-02T11:32:58.991Z,28.30
2018-07-02T11:35:25.728Z,27.60
2018-07-02T11:37:54.013Z,27.50
2018-07-02T11:45:16.099Z,29.90
2018-07-02T11:47:42.882Z,29.00
2018-07-02T11:50:10.137Z,29.20
2018-07-02T11:52:37.386Z,27.60
2018-07-02T11:55:06.025Z,27.20
2018-07-02T11:57:33.284Z,28.30
2018-07-02T12:00:00.017Z,28.20
2018-07-02T12:02:27.383Z,28.00
2018-07-02T12:04:54.649Z,27.70
2018-07-02T12:07:21.947Z,27.20
2018-07-02T12:09:51.489Z,26.80
2018-07-02T12:12:18.685Z,26.80
2018-07-02T12:14:45.967Z,27.40
2018-07-02T12:17:13.340Z,28.30
2018-07-02T12:19:40.512Z,29.50
2018-07-02T12:22:07.745Z,29.40
2018-07-02T12:24:35.596Z,30.10
2018-07-02T12:27:03.010Z,31.30
2018-07-02T12:29:30.379Z,31.60
2018-07-02T12:31:57.601Z,33.20
2018-07-02T12:34:24.925Z,30.20
2018-07-02T12:36:52.156Z,28.00
2018-07-02T12:39:19.384Z,27.10
2018-07-02T12:41:46.584Z,26.40
2018-07-02T12:44:14.224Z,27.60
2018-07-02T12:46:42.706Z,30.00
2018-07-02T12:49:09.977Z,31.70
2018-07-02T12:51:38.899Z,30.80
2018-07-02T12:54:06.478Z,32.30
2018-07-02T12:56:33.741Z,34.20
2018-07-02T12:59:00.981Z,34.90
2018-07-02T13:01:28.227Z,34.70
2018-07-02T13:03:55.457Z,34.70
2018-07-02T13:06:22.704Z,32.20
2018-07-02T13:11:17.373Z,31.30
2018-07-02T13:13:44.364Z,32.80
2018-07-02T13:16:11.676Z,33.40
2018-07-02T13:18:38.905Z,35.70
2018-07-02T13:21:05.912Z,38.30
2018-07-02T13:23:32.731Z,39.10
2018-07-02T13:25:59.989Z,37.30
2018-07-02T13:28:27.277Z,38.10
2018-07-02T13:33:21.738Z,40.80
2018-07-02T13:35:49.120Z,35.80
2018-07-02T13:38:16.482Z,33.40
2018-07-02T13:40:43.713Z,32.10
2018-07-02T13:43:11.004Z,31.40
2018-07-02T13:45:38.282Z,32.80
2018-07-02T13:48:05.809Z,35.30
2018-07-02T13:53:00.632Z,38.30
2018-07-02T13:55:28.083Z,38.10
2018-07-02T13:57:55.796Z,37.50
2018-07-02T14:02:50.357Z,39.30
2018-07-02T14:05:18.490Z,40.60
2018-07-02T14:07:45.674Z,41.40
2018-07-02T14:10:12.965Z,41.80
2018-07-02T14:12:40.504Z,40.00
2018-07-02T14:15:08.689Z,37.70
2018-07-02T14:17:36.291Z,39.10
2018-07-02T14:20:03.406Z,40.60
2018-07-02T14:22:30.582Z,39.80
2018-07-02T14:24:57.315Z,39.30
2018-07-02T14:27:24.080Z,38.90
2018-07-02T14:29:50.764Z,37.10
2018-07-02T14:32:17.455Z,35.90
2018-07-02T14:34:44.276Z,34.90
2018-07-02T14:39:37.795Z,37.30
2018-07-02T14:42:04.510Z,37.20
2018-07-02T14:44:31.709Z,37.20
2018-07-02T14:46:59.000Z,36.00
2018-07-02T14:49:25.788Z,34.80
2018-07-02T14:51:52.992Z,36.60
2018-07-02T14:54:20.361Z,37.70
2018-07-02T14:56:47.809Z,37.70
2018-07-02T14:59:15.088Z,36.80
2018-07-02T15:01:42.330Z,36.00
2018-07-02T15:04:09.521Z,36.20
2018-07-02T15:09:07.255Z,38.00
2018-07-02T15:11:34.460Z,39.70
2018-07-02T15:14:01.826Z,39.80
2018-07-02T15:16:29.101Z,38.10
2018-07-02T15:18:56.465Z,38.90
2018-07-02T15:21:23.752Z,38.60
2018-07-02T15:23:51.227Z,37.20
2018-07-02T15:26:18.471Z,39.30
2018-07-02T15:28:45.728Z,37.00
2018-07-02T15:31:12.976Z,38.20
2018-07-02T15:33:40.273Z,38.10
2018-07-02T15:36:07.639Z,36.20
2018-07-02T15:38:34.940Z,34.60
2018-07-02T15:41:02.194Z,34.90
2018-07-02T15:43:29.532Z,37.60
2018-07-02T15:45:56.797Z,39.10
2018-07-02T15:48:24.108Z,40.50
2018-07-02T15:50:51.392Z,41.10
2018-07-02T15:53:18.745Z,37.90
2018-07-02T15:55:46.033Z,37.80
2018-07-02T15:58:13.275Z,36.70
2018-07-02T16:00:40.618Z,36.30
2018-07-02T16:03:07.441Z,36.20
2018-07-02T16:05:34.286Z,37.80
2018-07-02T16:08:00.969Z,37.50
2018-07-02T16:10:27.784Z,37.60
2018-07-02T16:12:55.034Z,35.80
2018-07-02T16:15:22.288Z,38.10
2018-07-02T16:17:49.607Z,38.40
2018-07-02T16:20:16.873Z,40.70
2018-07-02T16:22:44.829Z,40.60
2018-07-02T16:25:12.180Z,41.10
2018-07-02T16:27:39.433Z,36.70
2018-07-02T16:30:07.688Z,35.60
2018-07-02T16:32:34.944Z,36.80
2018-07-02T16:35:02.225Z,36.00
2018-07-02T16:37:29.489Z,35.30
2018-07-02T16:39:56.721Z,35.00
2018-07-02T16:42:23.442Z,33.90
2018-07-02T16:44:50.148Z,33.50
2018-07-02T16:47:16.940Z,33.00
2018-07-02T16:49:43.668Z,34.40
2018-07-02T16:52:10.417Z,33.20
2018-07-02T16:54:37.235Z,33.30
2018-07-02T16:57:03.948Z,32.90
2018-07-02T16:59:30.760Z,30.70
2018-07-02T17:01:59.296Z,30.90
2018-07-02T17:04:26.529Z,31.10
2018-07-02T17:06:53.770Z,30.10
2018-07-02T17:09:21.040Z,30.80
2018-07-02T17:11:48.392Z,31.60
2018-07-02T17:14:15.588Z,31.30
2018-07-02T17:16:42.793Z,30.50
2018-07-02T17:19:10.046Z,31.10
2018-07-02T17:21:37.464Z,30.70
2018-07-02T17:24:04.222Z,30.30
2018-07-02T17:26:31.473Z,29.60
2018-07-02T17:28:58.260Z,29.40
2018-07-02T17:31:25.507Z,28.40
2018-07-02T17:33:52.765Z,27.80
2018-07-02T17:36:20.088Z,26.80
2018-07-02T17:38:47.327Z,26.20
2018-07-02T17:41:14.948Z,25.70
2018-07-02T17:43:42.198Z,25.30
2018-07-02T17:46:10.380Z,25.10
2018-07-02T17:48:37.656Z,24.90
2018-07-02T17:51:04.980Z,24.80
2018-07-02T17:53:32.288Z,24.60
2018-07-02T17:55:59.762Z,24.40
2018-07-02T17:58:27.113Z,24.00
2018-07-02T18:00:54.368Z,23.80
2018-07-02T18:03:21.571Z,23.70
2018-07-02T18:05:48.804Z,23.50
2018-07-02T18:08:16.048Z,23.20
2018-07-02T18:10:43.324Z,23.10
2018-07-02T18:13:10.460Z,23.10
2018-07-02T18:15:37.629Z,22.90
2018-07-02T18:18:04.955Z,22.80
2018-07-02T18:20:32.236Z,22.80
2018-07-02T18:22:59.424Z,22.60
2018-07-02T18:25:26.664Z,22.50
2018-07-02T18:27:53.977Z,22.40
2018-07-02T18:30:21.375Z,22.30
2018-07-02T18:32:49.190Z,22.20
2018-07-02T18:35:16.671Z,22.10
2018-07-02T18:37:44.541Z,22.10
2018-07-02T18:40:11.768Z,22.00
2018-07-02T18:45:06.884Z,21.90
2018-07-02T18:47:34.140Z,21.90
2018-07-02T18:50:01.894Z,21.80
2018-07-02T18:52:29.261Z,21.80
2018-07-02T18:54:56.509Z,21.70
2018-07-02T18:57:23.724Z,21.60
2018-07-02T18:59:51.024Z,21.40
2018-07-02T19:02:18.462Z,21.30
2018-07-02T19:04:45.650Z,21.30
2018-07-02T19:07:12.997Z,21.20
2018-07-02T19:09:41.581Z,21.10
2018-07-02T19:12:08.820Z,21.00
2018-07-02T19:14:36.092Z,20.90
2018-07-02T19:17:03.354Z,20.90
2018-07-02T19:19:30.911Z,20.90
2018-07-02T19:21:58.420Z,20.80
2018-07-02T19:24:25.756Z,20.80
2018-07-02T19:26:53.024Z,20.70
2018-07-02T19:29:20.445Z,20.60
2018-07-02T19:31:47.696Z,20.60
2018-07-02T19:36:42.448Z,20.50
2018-07-02T19:39:11.364Z,20.50
2018-07-02T19:41:38.596Z,20.40
2018-07-02T19:44:05.848Z,20.40
2018-07-02T19:46:33.168Z,20.40
2018-07-02T19:49:00.625Z,20.40
2018-07-02T19:51:27.995Z,20.30
2018-07-02T19:53:55.197Z,20.20
2018-07-02T19:56:22.572Z,20.10
2018-07-02T19:58:50.082Z,20.10
2018-07-02T20:01:17.436Z,20.00
2018-07-02T20:03:44.641Z,19.90
2018-07-02T20:06:11.933Z,19.90
2018-07-02T20:08:39.157Z,19.80
2018-07-02T20:11:06.376Z,19.80
2018-07-02T20:13:33.786Z,19.60
2018-07-02T20:16:01.031Z,19.60
2018-07-02T20:18:29.109Z,19.50
2018-07-02T20:20:56.306Z,19.50
2018-07-02T20:23:23.529Z,19.50
2018-07-02T20:25:50.769Z,19.40
2018-07-02T20:28:17.980Z,19.30
2018-07-02T20:30:45.209Z,19.30
2018-07-02T20:33:12.518Z,19.20
2018-07-02T20:38:07.153Z,19.10
2018-07-02T20:40:34.400Z,19.10
2018-07-02T20:43:03.312Z,19.00
2018-07-02T20:45:30.896Z,18.90
2018-07-02T20:47:58.408Z,18.80
2018-07-02T20:50:25.683Z,18.80
2018-07-02T20:52:52.911Z,18.70
2018-07-02T20:55:20.179Z,18.70
2018-07-02T20:57:47.495Z,18.70
2018-07-02T21:00:14.739Z,18.70
2018-07-02T21:02:41.966Z,18.60
2018-07-02T21:05:09.186Z,18.60
2018-07-02T21:07:36.422Z,18.50
2018-07-02T21:10:04.175Z,18.40
2018-07-02T21:12:31.599Z,18.40
2018-07-02T21:14:58.917Z,18.40
2018-07-02T21:17:26.096Z,18.30
2018-07-02T21:19:53.372Z,18.20
2018-07-02T21:22:20.652Z,18.20
2018-07-02T21:24:47.876Z,18.10
2018-07-02T21:27:15.126Z,18.10
2018-07-02T21:29:42.447Z,18.10
2018-07-02T21:32:09.652Z,18.00
2018-07-02T21:34:36.881Z,18.00
2018-07-02T21:37:04.703Z,17.90
2018-07-02T21:39:31.957Z,17.80
2018-07-02T21:41:59.214Z,17.80
2018-07-02T21:44:26.544Z,17.80
2018-07-02T21:46:53.769Z,17.70
2018-07-02T21:49:21.001Z,17.70
2018-07-02T21:51:48.236Z,17.60
2018-07-02T21:54:15.464Z,17.60
2018-07-02T21:56:42.733Z,17.60
2018-07-02T21:59:09.986Z,17.50
2018-07-02T22:01:37.204Z,17.50
2018-07-02T22:04:05.165Z,17.50
2018-07-02T22:06:32.393Z,17.40
2018-07-02T22:08:59.695Z,17.30
2018-07-02T22:11:26.912Z,17.40
2018-07-02T22:13:54.116Z,17.30
2018-07-02T22:16:21.302Z,17.20
2018-07-02T22:18:48.522Z,17.20
2018-07-02T22:21:15.780Z,17.10
2018-07-02T22:23:43.009Z,17.10
2018-07-02T22:26:10.321Z,17.00
2018-07-02T22:28:37.622Z,17.00
2018-07-02T22:31:04.966Z,17.00
2018-07-02T22:33:32.178Z,16.90
2018-07-02T22:35:59.373Z,16.80
2018-07-02T22:38:26.644Z,16.80
2018-07-02T22:40:53.846Z,16.80
2018-07-02T22:43:21.124Z,16.70
2018-07-02T22:45:48.319Z,16.70
2018-07-02T22:48:15.556Z,16.70
2018-07-02T22:50:42.740Z,16.60
2018-07-02T22:53:09.933Z,16.60
2018-07-02T22:55:48.822Z,16.60
2018-07-02T22:58:16.000Z,16.60
2018-07-02T23:00:43.212Z,16.60
2018-07-02T23:03:10.421Z,16.50
2018-07-02T23:05:37.656Z,16.40
2018-07-02T23:08:05.118Z,16.30
2018-07-02T23:10:32.935Z,16.40
2018-07-02T23:13:00.197Z,16.40
2018-07-02T23:15:27.396Z,16.30
2018-07-02T23:17:54.631Z,16.30
2018-07-02T23:20:22.266Z,16.20
2018-07-02T23:22:58.821Z,16.10
2018-07-02T23:25:26.934Z,16.10
2018-07-02T23:27:54.611Z,16.10
2018-07-02T23:30:21.812Z,16.10
2018-07-02T23:32:49.279Z,16.00
2018-07-02T23:35:17.345Z,16.00
2018-07-02T23:37:44.565Z,15.90
2018-07-02T23:40:11.757Z,15.90
2018-07-02T23:42:39.180Z,15.90
2018-07-02T23:45:06.423Z,15.90
2018-07-02T23:47:33.650Z,15.80
2018-07-02T23:50:00.926Z,15.80
2018-07-02T23:52:28.793Z,15.80
2018-07-02T23:54:56.021Z,15.80
2018-07-02T23:57:23.240Z,15.70
2018-07-02T23:59:50.523Z,15.70
